createdAt,value
2022-08-09T05:37:11.566Z,15.17
2022-08-09T05:41:14.202Z,15.74
2022-08-09T05:45:18.254Z,15.81
2022-08-09T05:50:11.009Z,15.82
2022-08-09T05:53:56.560Z,16.14
2022-08-09T05:58:00.639Z,16.73
2022-08-09T06:02:03.282Z,16.74
2022-08-09T06:06:06.619Z,17.48
2022-08-09T06:10:15.647Z,18.12
2022-08-09T06:14:18.572Z,18.75
2022-08-09T06:18:24.799Z,18.83
2022-08-09T06:22:28.999Z,18.96
2022-08-09T06:26:34.315Z,19.04
2022-08-09T06:30:38.191Z,19.71
2022-08-09T06:34:41.145Z,20.25
2022-08-09T06:38:49.994Z,20.06
2022-08-09T06:42:54.641Z,19.89
2022-08-09T06:46:57.206Z,20.19
2022-08-09T06:51:00.427Z,19.89
2022-08-09T06:55:10.267Z,20.48
2022-08-09T07:00:50.509Z,21.03
2022-08-09T07:03:52.485Z,20.95
2022-08-09T07:07:58.789Z,21.11
2022-08-09T07:12:04.043Z,21.04
2022-08-09T07:16:42.348Z,20.95
2022-08-09T07:20:32.250Z,21.15
2022-08-09T07:24:40.735Z,21.34
2022-08-09T07:29:09.112Z,21.50
2022-08-09T07:33:14.829Z,21.53
2022-08-09T07:37:19.510Z,21.33
2022-08-09T07:41:24.653Z,21.48
2022-08-09T07:45:38.127Z,21.19
2022-08-09T07:50:05.227Z,21.35
2022-08-09T07:54:08.617Z,21.62
2022-08-09T07:58:13.158Z,21.70
2022-08-09T08:02:19.746Z,21.73
2022-08-09T08:06:31.922Z,21.86
2022-08-09T08:10:36.009Z,21.89
2022-08-09T08:14:39.453Z,22.23
2022-08-09T08:18:43.617Z,22.32
2022-08-09T08:22:50.223Z,22.31
2022-08-09T08:26:58.375Z,22.34
2022-08-09T08:31:10.593Z,22.44
2022-08-09T08:35:18.098Z,22.82
2022-08-09T08:39:22.874Z,22.95
2022-08-09T08:43:27.172Z,23.28
2022-08-09T08:47:31.016Z,23.33
2022-08-09T08:51:38.879Z,23.59
2022-08-09T08:55:46.184Z,23.93
2022-08-09T08:59:54.071Z,24.05
2022-08-09T09:04:00.932Z,24.20
2022-08-09T09:08:05.344Z,24.19
2022-08-09T09:12:33.960Z,24.46
2022-08-09T09:16:38.027Z,24.69
2022-08-09T09:20:45.016Z,24.86
2022-08-09T09:24:49.841Z,25.10
2022-08-09T09:29:03.493Z,25.36
2022-08-09T09:33:16.668Z,25.49
2022-08-09T09:37:32.171Z,25.57
2022-08-09T09:41:49.011Z,25.55
2022-08-09T09:46:38.891Z,25.79
2022-08-09T09:50:23.122Z,25.95
2022-08-09T09:54:26.048Z,26.21
2022-08-09T09:58:45.724Z,26.37
2022-08-09T10:02:50.125Z,26.37
2022-08-09T10:06:54.646Z,26.46
2022-08-09T10:10:57.301Z,26.60
2022-08-09T10:15:17.228Z,26.23
2022-08-09T10:19:37.511Z,26.41
2022-08-09T10:23:40.756Z,26.12
2022-08-09T10:27:57.651Z,25.66
2022-08-09T10:36:25.913Z,25.93
2022-08-09T10:40:34.852Z,25.84
2022-08-09T10:44:41.015Z,25.57
2022-08-09T10:48:53.826Z,25.47
2022-08-09T10:53:12.701Z,26.20
2022-08-09T10:57:15.549Z,26.52
2022-08-09T11:03:14.275Z,26.66
2022-08-09T11:06:24.237Z,26.29
2022-08-09T11:10:57.810Z,25.88
2022-08-09T11:15:33.882Z,26.13
2022-08-09T11:20:11.837Z,26.60
2022-08-09T11:24:16.685Z,26.78
2022-08-09T11:28:54.188Z,26.91
2022-08-09T11:33:03.984Z,27.07
2022-08-09T11:37:07.920Z,27.15
2022-08-09T11:41:38.311Z,27.45
2022-08-09T11:45:55.239Z,27.48
2022-08-09T11:50:54.271Z,27.20
2022-08-09T11:54:33.245Z,27.38
2022-08-09T11:58:50.274Z,27.52
2022-08-09T12:02:55.059Z,27.39
2022-08-09T12:06:57.905Z,27.70
2022-08-09T12:11:01.935Z,28.00
2022-08-09T12:15:48.362Z,27.75
2022-08-09T12:19:44.160Z,27.74
2022-08-09T12:24:02.850Z,27.94
2022-08-09T12:29:14.481Z,27.78
2022-08-09T12:32:35.973Z,27.73
2022-08-09T12:36:58.590Z,28.03
2022-08-09T12:41:02.046Z,28.41
2022-08-09T12:45:32.551Z,29.14
2022-08-09T12:49:29.305Z,29.40
2022-08-09T12:53:38.681Z,29.08
2022-08-09T12:57:46.161Z,28.94
2022-08-09T13:02:01.605Z,28.47
2022-08-09T13:06:15.930Z,28.52
2022-08-09T13:10:21.485Z,29.14
2022-08-09T13:14:41.193Z,29.24
2022-08-09T13:18:49.627Z,29.35
2022-08-09T13:23:01.071Z,29.23
2022-08-09T13:27:24.275Z,29.72
2022-08-09T13:32:16.568Z,30.10
2022-08-09T13:36:38.170Z,31.00
2022-08-09T13:41:51.303Z,30.46
2022-08-09T13:44:42.816Z,29.81
2022-08-09T13:48:45.623Z,29.21
2022-08-09T13:52:51.180Z,29.13
2022-08-09T13:56:53.734Z,29.95
2022-08-09T14:00:58.106Z,29.97
2022-08-09T14:05:00.756Z,29.49
2022-08-09T14:09:03.409Z,28.51
2022-08-09T14:13:12.018Z,28.64
2022-08-09T14:17:25.607Z,28.91
2022-08-09T14:21:35.296Z,29.78
2022-08-09T14:25:42.627Z,29.61
2022-08-09T14:30:33.281Z,29.48
2022-08-09T14:34:09.683Z,29.26
2022-08-09T14:38:12.610Z,29.54
2022-08-09T14:42:30.134Z,30.21
2022-08-09T14:47:00.987Z,30.62
2022-08-09T14:51:06.404Z,32.29
2022-08-09T14:55:11.644Z,32.62
2022-08-09T14:59:22.687Z,33.67
2022-08-09T15:03:26.998Z,33.71
2022-08-09T15:07:35.189Z,32.17
2022-08-09T15:11:38.337Z,31.46
2022-08-09T15:15:41.098Z,29.99
2022-08-09T15:19:59.213Z,29.76
2022-08-09T15:24:13.938Z,29.20
2022-08-09T15:28:26.474Z,31.12
2022-08-09T15:32:30.776Z,30.60
2022-08-09T15:36:33.297Z,30.65
2022-08-09T15:40:37.230Z,29.84
2022-08-09T15:44:46.179Z,29.32
2022-08-09T15:48:49.838Z,29.11
2022-08-09T15:53:32.721Z,29.17
2022-08-09T15:57:44.520Z,29.90
2022-08-09T16:01:54.198Z,30.03
2022-08-09T16:06:02.917Z,30.03
2022-08-09T16:10:11.437Z,29.90
2022-08-09T16:14:31.368Z,29.93
2022-08-09T16:18:34.928Z,29.93
2022-08-09T16:22:42.087Z,29.94
2022-08-09T16:26:51.079Z,29.99
2022-08-09T16:30:59.097Z,30.39
2022-08-09T16:35:02.461Z,30.23
2022-08-09T16:39:05.717Z,29.46
2022-08-09T16:43:09.684Z,29.64
2022-08-09T16:48:39.961Z,30.11
2022-08-09T16:51:36.932Z,30.10
2022-08-09T16:55:57.746Z,30.15
2022-08-09T17:00:02.461Z,29.91
2022-08-09T17:04:06.893Z,29.91
2022-08-09T17:08:43.877Z,29.84
2022-08-09T17:12:32.366Z,30.05
2022-08-09T17:16:38.082Z,29.96
2022-08-09T17:20:52.326Z,29.76
2022-08-09T17:24:55.852Z,29.40
2022-08-09T17:29:11.599Z,29.44
2022-08-09T17:33:23.323Z,29.58
2022-08-09T17:37:29.662Z,29.25
2022-08-09T17:41:38.986Z,29.26
2022-08-09T17:46:02.891Z,29.11
2022-08-09T17:50:14.038Z,29.05
2022-08-09T17:54:25.130Z,29.07
2022-08-09T17:58:28.009Z,28.58
2022-08-09T18:02:33.737Z,27.76
2022-08-09T18:06:36.642Z,27.21
2022-08-09T18:10:45.933Z,26.71
2022-08-09T18:14:53.760Z,26.41
2022-08-09T18:18:56.898Z,26.02
2022-08-09T18:23:04.663Z,25.86
2022-08-09T18:27:10.061Z,25.53
2022-08-09T18:31:24.724Z,25.25
2022-08-09T18:35:58.355Z,24.99
2022-08-09T18:39:57.771Z,24.76
2022-08-09T18:44:03.018Z,24.61
2022-08-09T18:48:07.280Z,24.42
2022-08-09T18:52:10.187Z,24.24
2022-08-09T18:56:14.426Z,24.02
2022-08-09T19:00:20.454Z,23.87
2022-08-09T19:04:34.594Z,23.73
2022-08-09T19:08:37.991Z,23.66
2022-08-09T19:12:41.473Z,23.53
2022-08-09T19:16:54.097Z,23.42
2022-08-09T19:20:58.598Z,23.34
2022-08-09T19:25:05.225Z,23.26
2022-08-09T19:29:18.338Z,23.00
